createdAt,value
2023-12-02T00:01:50.739Z,15.30
2023-12-02T00:04:17.423Z,12.77
2023-12-02T00:06:44.137Z,16.27
2023-12-02T00:09:11.175Z,17.65
2023-12-02T00:11:37.843Z,17.40
2023-12-02T00:14:04.377Z,12.30
2023-12-02T00:16:30.997Z,16.20
2023-12-02T00:18:57.579Z,17.35
2023-12-02T00:21:24.193Z,16.05
2023-12-02T00:23:50.679Z,16.98
2023-12-02T00:26:17.141Z,17.45
2023-12-02T00:28:43.671Z,15.70
2023-12-02T00:31:10.155Z,17.73
2023-12-02T00:33:36.726Z,15.45
2023-12-02T00:36:03.474Z,18.08
2023-12-02T00:38:30.028Z,17.88
2023-12-02T00:40:56.540Z,14.00
2023-12-02T00:43:23.011Z,16.38
2023-12-02T00:45:50.333Z,17.38
2023-12-02T00:48:16.929Z,15.82
2023-12-02T00:50:43.464Z,14.77
2023-12-02T00:53:10.028Z,15.90
2023-12-02T00:55:36.526Z,19.05
2023-12-02T00:58:03.659Z,15.75
2023-12-02T01:00:30.193Z,13.27
2023-12-02T01:02:56.733Z,14.32
2023-12-02T01:05:23.407Z,14.50
2023-12-02T01:07:49.915Z,16.67
2023-12-02T01:10:16.792Z,18.45
2023-12-02T01:12:44.415Z,20.23
2023-12-02T01:15:11.056Z,15.60
2023-12-02T01:17:37.700Z,16.30
2023-12-02T01:20:04.615Z,15.02
2023-12-02T01:22:31.128Z,19.00
2023-12-02T01:24:57.586Z,20.85
2023-12-02T01:27:24.174Z,16.50
2023-12-02T01:29:51.286Z,15.80
2023-12-02T01:32:17.867Z,18.58
2023-12-02T01:34:44.426Z,15.15
2023-12-02T01:37:10.941Z,15.73
2023-12-02T01:39:37.468Z,16.92
2023-12-02T01:42:05.469Z,16.30
2023-12-02T01:44:32.736Z,17.00
2023-12-02T01:47:00.380Z,16.42
2023-12-02T01:49:27.858Z,19.70
2023-12-02T01:51:54.711Z,19.95
2023-12-02T01:54:21.569Z,15.23
2023-12-02T01:56:48.247Z,16.50
2023-12-02T01:59:15.302Z,18.92
2023-12-02T02:01:41.901Z,18.88
2023-12-02T02:04:08.687Z,16.13
2023-12-02T02:06:35.285Z,18.13
2023-12-02T02:09:01.886Z,16.05
2023-12-02T02:11:28.411Z,19.48
2023-12-02T02:13:54.903Z,16.42
2023-12-02T02:16:21.366Z,15.13
2023-12-02T02:18:48.014Z,16.88
2023-12-02T02:21:17.804Z,16.98
2023-12-02T02:23:44.408Z,17.50
2023-12-02T02:26:10.913Z,16.75
2023-12-02T02:28:37.467Z,17.13
2023-12-02T02:31:04.143Z,15.82
2023-12-02T02:33:33.195Z,15.55
2023-12-02T02:35:59.936Z,15.25
2023-12-02T02:38:26.497Z,14.50
2023-12-02T02:40:53.086Z,16.40
2023-12-02T02:43:19.579Z,12.90
2023-12-02T02:45:46.045Z,16.83
2023-12-02T02:48:13.072Z,18.98
2023-12-02T02:50:39.713Z,14.57
2023-12-02T02:53:06.230Z,13.65
2023-12-02T02:55:32.728Z,14.80
2023-12-02T02:57:59.216Z,14.00
2023-12-02T03:00:25.739Z,17.27
2023-12-02T03:02:52.243Z,15.35
2023-12-02T03:05:18.807Z,18.70
2023-12-02T03:07:45.282Z,17.25
2023-12-02T03:10:12.347Z,14.00
2023-12-02T03:12:38.929Z,14.13
2023-12-02T03:15:05.876Z,12.80
2023-12-02T03:17:32.567Z,16.92
2023-12-02T03:19:59.572Z,19.45
2023-12-02T03:22:26.116Z,14.60
2023-12-02T03:24:52.802Z,14.63
2023-12-02T03:27:19.377Z,16.88
2023-12-02T03:29:45.905Z,16.08
2023-12-02T03:32:12.564Z,14.27
2023-12-02T03:34:39.139Z,14.68
2023-12-02T03:37:06.221Z,17.38
2023-12-02T03:39:33.151Z,16.50
2023-12-02T03:41:59.678Z,15.30
2023-12-02T03:44:26.162Z,19.77
2023-12-02T03:46:52.932Z,14.80
2023-12-02T03:49:19.772Z,16.58
2023-12-02T03:51:46.342Z,18.75
2023-12-02T03:54:12.898Z,17.35
2023-12-02T03:56:40.298Z,17.33
2023-12-02T03:59:07.223Z,15.82
2023-12-02T04:01:33.787Z,14.20
2023-12-02T04:04:00.289Z,14.82
2023-12-02T04:06:26.800Z,18.10
2023-12-02T04:08:53.285Z,15.10
2023-12-02T04:11:19.852Z,17.02
2023-12-02T04:13:46.353Z,15.32
2023-12-02T04:16:12.905Z,16.88
2023-12-02T04:18:39.635Z,17.42
2023-12-02T04:21:09.924Z,17.60
2023-12-02T04:23:38.280Z,12.65
2023-12-02T04:26:05.195Z,14.32
2023-12-02T04:28:31.687Z,19.38
2023-12-02T04:30:58.406Z,17.25
2023-12-02T04:33:25.202Z,12.98
2023-12-02T04:35:51.842Z,13.63
2023-12-02T04:38:19.127Z,14.77
2023-12-02T04:40:46.017Z,16.17
2023-12-02T04:43:12.627Z,16.85
2023-12-02T04:45:39.305Z,12.07
2023-12-02T04:48:06.177Z,13.80
2023-12-02T04:50:32.748Z,14.95
2023-12-02T04:52:59.262Z,16.13
2023-12-02T04:55:25.740Z,13.82
2023-12-02T04:57:52.400Z,18.45
2023-12-02T05:00:19.409Z,13.63
2023-12-02T05:02:46.041Z,14.02
2023-12-02T05:05:14.051Z,15.15
2023-12-02T05:07:40.791Z,16.00
2023-12-02T05:10:07.688Z,13.95
2023-12-02T05:12:34.381Z,14.10
2023-12-02T05:15:01.018Z,12.27
2023-12-02T05:17:28.697Z,13.85
2023-12-02T05:19:55.315Z,15.23
2023-12-02T05:22:21.951Z,13.50
2023-12-02T05:24:48.480Z,14.60
2023-12-02T05:27:15.204Z,14.30
2023-12-02T05:29:41.783Z,12.55
2023-12-02T05:32:08.269Z,13.90
2023-12-02T05:34:34.815Z,13.30
2023-12-02T05:37:01.885Z,14.50
2023-12-02T05:39:28.420Z,11.68
2023-12-02T05:41:55.190Z,11.77
2023-12-02T05:44:21.700Z,11.57
2023-12-02T05:46:48.204Z,14.80
2023-12-02T05:49:14.973Z,16.63
2023-12-02T05:51:41.750Z,13.88
2023-12-02T05:54:10.914Z,13.45
2023-12-02T05:56:37.514Z,13.45
2023-12-02T05:59:03.997Z,14.77
2023-12-02T06:01:31.066Z,16.38
2023-12-02T06:03:57.920Z,13.57
2023-12-02T06:06:24.671Z,13.48
2023-12-02T06:08:51.164Z,14.32
2023-12-02T06:11:17.875Z,13.73
2023-12-02T06:13:44.418Z,13.18
2023-12-02T06:16:11.462Z,12.55
2023-12-02T06:18:38.081Z,13.38
2023-12-02T06:21:04.843Z,13.07
2023-12-02T06:23:31.352Z,16.15
2023-12-02T06:25:57.867Z,13.77
2023-12-02T06:28:24.643Z,12.73
2023-12-02T06:30:51.268Z,11.27
2023-12-02T06:33:17.895Z,13.15
2023-12-02T06:35:44.717Z,11.27
2023-12-02T06:38:11.538Z,11.55
2023-12-02T06:40:38.055Z,13.23
2023-12-02T06:43:04.674Z,11.20
2023-12-02T06:45:31.239Z,11.82
2023-12-02T06:47:58.361Z,14.05
2023-12-02T06:50:25.045Z,12.15
2023-12-02T06:52:52.736Z,10.40
2023-12-02T06:57:48.645Z,17.70
2023-12-02T07:00:15.860Z,12.10
2023-12-02T07:02:43.126Z,12.18
2023-12-02T07:05:10.051Z,12.20
2023-12-02T07:07:37.030Z,12.32
2023-12-02T07:10:04.016Z,17.88
2023-12-02T07:12:30.544Z,12.77
2023-12-02T07:14:57.137Z,14.73
2023-12-02T07:17:23.784Z,13.80
2023-12-02T07:19:50.371Z,14.68
2023-12-02T07:22:17.273Z,12.68
2023-12-02T07:24:43.806Z,13.65
2023-12-02T07:27:10.472Z,14.98
2023-12-02T07:32:08.246Z,16.10
2023-12-02T07:34:34.850Z,15.80
2023-12-02T07:37:01.398Z,14.25
2023-12-02T07:39:27.860Z,15.68
2023-12-02T07:41:54.662Z,15.15
2023-12-02T07:44:21.278Z,13.88
2023-12-02T07:46:47.821Z,15.73
2023-12-02T07:49:14.435Z,13.85
2023-12-02T07:51:41.234Z,15.77
2023-12-02T07:54:07.789Z,15.02
2023-12-02T07:56:34.320Z,18.30
2023-12-02T07:59:01.149Z,16.80
2023-12-02T08:01:27.979Z,16.75
2023-12-02T08:03:54.672Z,16.13
2023-12-02T08:06:21.135Z,14.32
2023-12-02T08:08:48.507Z,17.70
2023-12-02T08:11:16.964Z,16.13
2023-12-02T08:13:43.478Z,15.60
2023-12-02T08:16:10.429Z,13.43
2023-12-02T08:18:36.932Z,17.60
2023-12-02T08:21:04.479Z,15.85
2023-12-02T08:23:31.216Z,17.13
2023-12-02T08:25:57.805Z,18.55
2023-12-02T08:28:24.452Z,18.75
2023-12-02T08:30:50.966Z,16.67
2023-12-02T08:33:17.586Z,20.55
2023-12-02T08:35:44.098Z,16.67
2023-12-02T08:38:10.644Z,18.40
2023-12-02T08:40:37.250Z,17.40
2023-12-02T08:43:03.758Z,17.88
2023-12-02T08:45:30.305Z,17.60
2023-12-02T08:47:56.840Z,20.05
2023-12-02T08:50:23.395Z,18.65
2023-12-02T08:52:49.910Z,18.73
2023-12-02T08:55:16.613Z,15.25
2023-12-02T08:57:43.146Z,17.15
2023-12-02T09:00:10.919Z,22.30
2023-12-02T09:02:37.441Z,17.00
2023-12-02T09:05:06.408Z,21.30
2023-12-02T09:07:33.102Z,18.92
2023-12-02T09:09:59.669Z,18.38
2023-12-02T09:12:26.280Z,19.55
2023-12-02T09:15:09.766Z,17.73
2023-12-02T09:18:01.016Z,18.40
2023-12-02T09:20:45.364Z,19.48
2023-12-02T09:23:13.310Z,21.95
2023-12-02T09:25:41.114Z,19.08
2023-12-02T09:28:07.816Z,23.98
2023-12-02T09:30:36.254Z,17.25
2023-12-02T09:33:05.565Z,21.00
2023-12-02T09:35:33.062Z,21.65
2023-12-02T09:40:37.510Z,18.40
2023-12-02T09:43:16.490Z,21.67
2023-12-02T09:46:02.172Z,22.40
2023-12-02T09:48:31.323Z,19.27
2023-12-02T09:51:30.442Z,19.60
2023-12-02T09:54:20.783Z,18.00
2023-12-02T09:56:55.729Z,20.17
2023-12-02T09:59:48.343Z,19.75
2023-12-02T10:02:36.850Z,22.10
2023-12-02T10:05:11.792Z,22.95
2023-12-02T10:08:07.594Z,19.98
2023-12-02T10:10:44.798Z,23.23
2023-12-02T10:13:25.063Z,21.98
2023-12-02T10:15:56.837Z,19.77
2023-12-02T10:18:24.222Z,20.95
2023-12-02T10:20:56.952Z,18.05
2023-12-02T10:23:27.245Z,20.10
2023-12-02T10:26:09.250Z,21.75
2023-12-02T10:28:43.620Z,22.80
2023-12-02T10:31:16.140Z,24.67
2023-12-02T10:33:57.811Z,24.88
2023-12-02T10:36:28.206Z,28.08
2023-12-02T10:39:13.516Z,24.17
2023-12-02T10:41:52.314Z,24.35
2023-12-02T10:44:22.476Z,28.55
2023-12-02T10:46:54.507Z,24.48
2023-12-02T10:49:23.120Z,24.23
2023-12-02T10:52:40.584Z,23.13
2023-12-02T10:54:41.192Z,22.73
2023-12-02T10:57:09.809Z,26.50
2023-12-02T10:59:43.629Z,27.50
2023-12-02T11:02:26.979Z,27.67
2023-12-02T11:05:30.053Z,26.60
2023-12-02T11:08:02.044Z,25.98
2023-12-02T11:10:35.902Z,21.85
2023-12-02T11:13:13.423Z,24.10
2023-12-02T11:15:51.765Z,28.15
2023-12-02T11:18:29.883Z,22.20
2023-12-02T11:21:05.566Z,27.83
2023-12-02T11:23:47.412Z,24.65
2023-12-02T11:26:29.357Z,21.67
2023-12-02T11:29:24.757Z,21.80
2023-12-02T11:32:15.667Z,23.27
2023-12-02T11:35:07.086Z,22.05
2023-12-02T11:37:55.297Z,23.45
2023-12-02T11:40:23.664Z,23.23
2023-12-02T11:43:01.410Z,22.67
2023-12-02T11:45:34.500Z,25.38
2023-12-02T11:48:12.141Z,25.95
2023-12-02T11:50:56.814Z,22.60
2023-12-02T11:53:38.117Z,24.95
2023-12-02T11:56:18.979Z,20.23
2023-12-02T11:58:55.565Z,26.95
2023-12-02T12:01:50.113Z,24.75
2023-12-02T12:04:31.638Z,25.55
2023-12-02T12:07:38.255Z,21.73
2023-12-02T12:10:13.342Z,21.83
2023-12-02T12:12:43.462Z,25.15
2023-12-02T12:15:10.154Z,29.45
2023-12-02T12:17:36.863Z,29.08
2023-12-02T12:20:20.926Z,25.75
2023-12-02T12:22:47.483Z,21.23
2023-12-02T12:25:14.161Z,22.33
2023-12-02T12:27:41.538Z,20.50
2023-12-02T12:32:35.485Z,16.33
2023-12-02T12:35:10.945Z,16.10
2023-12-02T12:37:37.999Z,15.40
2023-12-02T12:40:05.764Z,15.85
2023-12-02T12:42:32.560Z,13.95
2023-12-02T12:45:00.714Z,14.75
2023-12-02T12:47:28.965Z,11.52
2023-12-02T12:49:55.794Z,13.13
2023-12-02T12:52:22.573Z,12.27
2023-12-02T12:54:57.971Z,12.82
2023-12-02T12:57:42.259Z,12.13
2023-12-02T13:00:11.547Z,10.27
2023-12-02T13:02:47.330Z,10.77
2023-12-02T13:05:17.600Z,8.57
2023-12-02T13:08:02.999Z,10.35
2023-12-02T13:10:34.035Z,12.45
2023-12-02T13:13:03.813Z,12.45
2023-12-02T13:15:34.705Z,11.73
2023-12-02T13:18:01.882Z,13.18
2023-12-02T13:20:32.258Z,17.77
2023-12-02T13:23:04.746Z,14.70
2023-12-02T13:25:37.340Z,17.20
2023-12-02T13:28:14.836Z,14.00
2023-12-02T13:30:42.015Z,15.50
2023-12-02T13:33:15.281Z,17.40
2023-12-02T13:35:44.676Z,17.38
2023-12-02T13:38:27.029Z,16.88
2023-12-02T13:41:04.264Z,18.73
2023-12-02T13:43:43.237Z,18.05
2023-12-02T13:46:16.277Z,16.83
2023-12-02T13:49:03.031Z,14.65
2023-12-02T13:51:38.796Z,21.27
2023-12-02T13:54:20.192Z,24.90
2023-12-02T13:57:32.136Z,22.63
2023-12-02T14:00:06.340Z,23.35
2023-12-02T14:02:32.771Z,23.50
2023-12-02T14:05:07.079Z,22.00
2023-12-02T14:07:38.903Z,18.55
2023-12-02T14:10:07.805Z,18.23
2023-12-02T14:12:58.750Z,18.77
2023-12-02T14:15:40.183Z,17.65
2023-12-02T14:18:34.483Z,18.10
2023-12-02T14:21:15.435Z,17.52
2023-12-02T14:24:29.509Z,16.20
2023-12-02T14:27:22.620Z,17.75
2023-12-02T14:30:05.902Z,18.58
2023-12-02T14:32:35.245Z,20.23
2023-12-02T14:35:13.619Z,19.05
2023-12-02T14:37:58.679Z,18.42
2023-12-02T14:40:44.023Z,19.35
2023-12-02T14:43:28.065Z,20.73
2023-12-02T14:45:58.765Z,19.73
2023-12-02T14:48:28.529Z,20.38
2023-12-02T14:50:58.395Z,19.38
2023-12-02T14:53:34.980Z,18.58
2023-12-02T14:56:21.695Z,18.42
2023-12-02T14:58:48.204Z,18.30
2023-12-02T15:01:15.032Z,15.07
2023-12-02T15:03:43.352Z,13.98
2023-12-02T15:06:11.925Z,13.75
2023-12-02T15:08:40.527Z,13.00
2023-12-02T15:11:10.597Z,13.48
2023-12-02T15:13:38.165Z,10.52
2023-12-02T15:18:33.447Z,11.63
2023-12-02T15:21:04.429Z,10.65
2023-12-02T15:23:30.973Z,10.88
2023-12-02T15:25:59.009Z,11.15
2023-12-02T15:28:31.683Z,10.32
2023-12-02T15:31:13.495Z,11.43
2023-12-02T15:33:57.195Z,13.48
2023-12-02T15:36:25.756Z,13.70
2023-12-02T15:38:53.546Z,13.88
2023-12-02T15:41:20.944Z,15.43
2023-12-02T15:43:48.018Z,18.15
2023-12-02T15:46:14.918Z,15.40
2023-12-02T15:48:42.462Z,20.20
2023-12-02T15:51:09.949Z,22.25
2023-12-02T15:53:36.916Z,23.50
2023-12-02T15:56:04.203Z,23.13
2023-12-02T15:58:32.454Z,22.73
2023-12-02T16:01:02.907Z,26.48
2023-12-02T16:03:29.694Z,24.20
2023-12-02T16:05:56.598Z,22.00
2023-12-02T16:08:23.930Z,22.55
2023-12-02T16:11:04.955Z,25.15
2023-12-02T16:13:37.259Z,25.83
2023-12-02T16:16:11.505Z,27.42
2023-12-02T16:18:42.912Z,24.25
2023-12-02T16:21:11.176Z,22.73
2023-12-02T16:23:40.016Z,25.73
2023-12-02T16:26:08.642Z,28.73
2023-12-02T16:28:36.343Z,24.45
2023-12-02T16:31:04.760Z,26.13
2023-12-02T16:33:31.948Z,23.98
2023-12-02T16:36:00.289Z,22.73
2023-12-02T16:38:27.163Z,23.40
2023-12-02T16:40:54.605Z,22.45
2023-12-02T16:43:22.642Z,25.30
2023-12-02T16:45:57.584Z,19.73
2023-12-02T16:48:24.875Z,21.30
2023-12-02T16:50:53.221Z,23.75
2023-12-02T16:53:24.628Z,22.70
2023-12-02T16:56:02.216Z,21.13
2023-12-02T16:58:38.259Z,18.85
2023-12-02T17:01:07.964Z,17.85
2023-12-02T17:03:36.626Z,17.65
2023-12-02T17:06:09.027Z,16.65
2023-12-02T17:08:37.234Z,17.25
2023-12-02T17:11:27.119Z,15.30
2023-12-02T17:14:01.118Z,17.92
2023-12-02T17:16:31.115Z,17.25
2023-12-02T17:18:57.942Z,17.42
2023-12-02T17:21:36.760Z,16.55
2023-12-02T17:24:08.238Z,14.02
2023-12-02T17:26:35.237Z,16.35
2023-12-02T17:29:01.849Z,14.90
2023-12-02T17:31:28.353Z,18.42
2023-12-02T17:33:55.128Z,16.92
2023-12-02T17:36:21.688Z,17.92
2023-12-02T17:38:48.188Z,15.30
2023-12-02T17:41:14.710Z,16.65
2023-12-02T17:43:41.297Z,16.45
2023-12-02T17:46:07.817Z,15.88
2023-12-02T17:48:34.342Z,21.30
2023-12-02T17:51:00.939Z,16.10
2023-12-02T17:53:27.445Z,15.07
2023-12-02T17:55:53.934Z,14.52
2023-12-02T17:58:21.622Z,18.83
2023-12-02T18:03:15.903Z,15.07
2023-12-02T18:05:42.482Z,16.38
2023-12-02T18:08:09.053Z,18.08
2023-12-02T18:10:35.602Z,17.27
2023-12-02T18:13:02.120Z,19.50
2023-12-02T18:15:28.735Z,17.08
2023-12-02T18:17:55.975Z,16.65
2023-12-02T18:20:22.507Z,13.98
2023-12-02T18:22:49.077Z,17.13
2023-12-02T18:25:15.686Z,16.30
2023-12-02T18:27:42.235Z,17.33
2023-12-02T18:30:09.289Z,15.73
2023-12-02T18:32:36.076Z,18.88
2023-12-02T18:35:03.285Z,17.98
2023-12-02T18:37:29.752Z,18.35
2023-12-02T18:39:57.061Z,15.10
2023-12-02T18:42:23.660Z,14.73
2023-12-02T18:44:50.213Z,14.13
2023-12-02T18:47:16.718Z,14.85
2023-12-02T18:49:43.227Z,16.63
2023-12-02T18:52:09.748Z,16.08
2023-12-02T18:54:36.420Z,17.27
2023-12-02T18:57:03.024Z,17.13
2023-12-02T18:59:29.597Z,15.38
2023-12-02T19:01:56.145Z,18.20
2023-12-02T19:04:22.778Z,16.50
2023-12-02T19:06:49.359Z,18.38
2023-12-02T19:09:16.528Z,16.08
2023-12-02T19:11:44.488Z,15.55
2023-12-02T19:14:11.261Z,16.58
2023-12-02T19:16:37.858Z,14.35
2023-12-02T19:19:10.452Z,16.52
2023-12-02T19:21:39.504Z,18.30
2023-12-02T19:24:06.394Z,12.00
2023-12-02T19:26:33.955Z,14.45
2023-12-02T19:29:00.547Z,12.43
2023-12-02T19:31:27.124Z,14.00
2023-12-02T19:33:53.784Z,13.82
2023-12-02T19:36:20.463Z,15.75
2023-12-02T19:38:46.933Z,14.25
2023-12-02T19:41:13.471Z,14.88
2023-12-02T19:43:40.828Z,13.38
2023-12-02T19:46:07.691Z,14.18
2023-12-02T19:48:34.556Z,13.73
2023-12-02T19:51:03.966Z,15.50
2023-12-02T19:53:32.146Z,14.32
2023-12-02T19:55:58.608Z,15.65
2023-12-02T19:58:25.198Z,12.27
2023-12-02T20:00:53.082Z,13.10
2023-12-02T20:03:19.689Z,13.90
2023-12-02T20:05:46.232Z,12.10
2023-12-02T20:08:12.806Z,11.52
2023-12-02T20:10:39.390Z,11.18
2023-12-02T20:13:06.065Z,13.02
2023-12-02T20:15:32.640Z,11.63
2023-12-02T20:17:59.282Z,12.85
2023-12-02T20:20:25.836Z,11.05
2023-12-02T20:22:52.390Z,11.82
2023-12-02T20:25:19.361Z,12.40
2023-12-02T20:27:46.510Z,10.30
2023-12-02T20:30:13.264Z,9.30
2023-12-02T20:32:39.964Z,10.90
2023-12-02T20:35:07.149Z,10.98
2023-12-02T20:37:33.666Z,9.55
2023-12-02T20:40:00.315Z,10.57
2023-12-02T20:42:26.907Z,9.63
2023-12-02T20:44:53.434Z,8.88
2023-12-02T20:47:20.261Z,8.77
2023-12-02T20:49:47.393Z,9.48
2023-12-02T20:52:13.982Z,10.45
2023-12-02T20:54:40.527Z,8.02
2023-12-02T20:57:07.154Z,8.07
2023-12-02T20:59:33.688Z,9.98
2023-12-02T21:02:00.369Z,8.15
2023-12-02T21:04:26.999Z,11.20
2023-12-02T21:06:53.526Z,10.07
2023-12-02T21:09:20.075Z,9.48
2023-12-02T21:11:46.538Z,7.20
2023-12-02T21:14:13.094Z,7.00
2023-12-02T21:16:40.619Z,8.85
2023-12-02T21:19:07.311Z,10.07
2023-12-02T21:21:33.875Z,8.85
2023-12-02T21:24:00.410Z,7.82
2023-12-02T21:26:26.937Z,9.90
2023-12-02T21:28:54.951Z,8.18
2023-12-02T21:31:23.666Z,8.85
2023-12-02T21:33:50.364Z,9.40
2023-12-02T21:36:17.234Z,8.63
2023-12-02T21:38:47.388Z,9.02
2023-12-02T21:41:18.265Z,9.75
2023-12-02T21:43:46.683Z,7.93
2023-12-02T21:46:25.939Z,7.30
2023-12-02T21:48:59.751Z,6.80
2023-12-02T21:51:34.444Z,10.13
2023-12-02T21:54:02.670Z,9.40
2023-12-02T21:56:41.120Z,10.63
2023-12-02T21:59:09.938Z,8.02
2023-12-02T22:01:41.343Z,8.80
2023-12-02T22:04:09.385Z,7.15
2023-12-02T22:06:42.647Z,8.52
2023-12-02T22:09:09.485Z,8.98
2023-12-02T22:11:43.655Z,9.48
2023-12-02T22:14:21.241Z,11.43
2023-12-02T22:16:49.233Z,9.45
2023-12-02T22:19:18.800Z,8.55
2023-12-02T22:21:45.684Z,8.25
2023-12-02T22:24:12.907Z,9.43
2023-12-02T22:26:39.924Z,7.72
2023-12-02T22:29:11.098Z,8.93
2023-12-02T22:31:38.794Z,8.65
2023-12-02T22:36:41.482Z,8.65
2023-12-02T22:39:28.681Z,9.60
2023-12-02T22:41:57.315Z,9.80
2023-12-02T22:44:25.545Z,8.60
2023-12-02T22:46:57.509Z,11.93
2023-12-02T22:49:24.747Z,10.38
2023-12-02T22:51:57.619Z,9.95
2023-12-02T22:54:37.714Z,9.85
2023-12-02T22:57:05.171Z,9.02
2023-12-02T22:59:31.787Z,11.32
2023-12-02T23:01:58.334Z,7.63
2023-12-02T23:04:30.737Z,10.25
2023-12-02T23:06:57.281Z,9.13
2023-12-02T23:09:30.208Z,8.73
2023-12-02T23:12:04.048Z,7.88
2023-12-02T23:14:45.860Z,9.73
2023-12-02T23:17:17.024Z,9.30
2023-12-02T23:19:43.621Z,8.23
2023-12-02T23:22:10.158Z,8.55
2023-12-02T23:24:38.483Z,11.73
2023-12-02T23:27:05.577Z,9.07
2023-12-02T23:29:32.441Z,9.02
2023-12-02T23:31:59.522Z,10.73
2023-12-02T23:34:26.692Z,9.38
2023-12-02T23:36:53.290Z,10.48
2023-12-02T23:39:24.506Z,8.43
2023-12-02T23:41:51.262Z,9.50
2023-12-02T23:44:33.521Z,8.00
2023-12-02T23:47:00.426Z,11.20
2023-12-02T23:49:27.067Z,9.27
2023-12-02T23:51:53.607Z,10.00
2023-12-02T23:54:20.127Z,10.23
2023-12-02T23:56:47.596Z,9.30
2023-12-02T23:59:14.217Z,8.65
